sensor_id;sensor_type;location;lat;lon;timestamp;temperature;humidity
11569;DHT22;5840;46.894;15.542;2023-06-14T00:00:17;15.20;99.90
11569;DHT22;5840;46.894;15.542;2023-06-14T00:02:44;15.20;99.90
11569;DHT22;5840;46.894;15.542;2023-06-14T00:05:11;15.20;99.90
11569;DHT22;5840;46.894;15.542;2023-06-14T00:07:39;15.20;99.90
11569;DHT22;5840;46.894;15.542;2023-06-14T00:10:09;15.20;99.90
11569;DHT22;5840;46.894;15.542;2023-06-14T00:12:38;15.20;99.90
11569;DHT22;5840;46.894;15.542;2023-06-14T00:15:06;15.30;99.90
11569;DHT22;5840;46.894;15.542;2023-06-14T00:17:35;15.30;99.90
11569;DHT22;5840;46.894;15.542;2023-06-14T00:20:03;15.30;99.90
11569;DHT22;5840;46.894;15.542;2023-06-14T00:22:33;15.30;99.90
11569;DHT22;5840;46.894;15.542;2023-06-14T00:25:02;15.30;99.90
11569;DHT22;5840;46.894;15.542;2023-06-14T00:27:29;15.30;99.90
11569;DHT22;5840;46.894;15.542;2023-06-14T00:29:57;15.30;99.90
11569;DHT22;5840;46.894;15.542;2023-06-14T00:32:24;15.30;99.90
11569;DHT22;5840;46.894;15.542;2023-06-14T00:34:53;15.20;99.90
11569;DHT22;5840;46.894;15.542;2023-06-14T00:37:20;15.30;99.90
11569;DHT22;5840;46.894;15.542;2023-06-14T00:39:47;15.20;99.90
11569;DHT22;5840;46.894;15.542;2023-06-14T00:42:23;15.20;99.90
11569;DHT22;5840;46.894;15.542;2023-06-14T00:44:51;15.20;99.90
11569;DHT22;5840;46.894;15.542;2023-06-14T00:47:19;15.30;99.90
11569;DHT22;5840;46.894;15.542;2023-06-14T00:49:47;15.30;99.90
11569;DHT22;5840;46.894;15.542;2023-06-14T00:52:15;15.30;99.90
11569;DHT22;5840;46.894;15.542;2023-06-14T00:54:43;15.30;99.90
11569;DHT22;5840;46.894;15.542;2023-06-14T00:57:11;15.30;99.90
11569;DHT22;5840;46.894;15.542;2023-06-14T00:59:43;15.30;99.90
11569;DHT22;5840;46.894;15.542;2023-06-14T01:02:10;15.30;99.90
11569;DHT22;5840;46.894;15.542;2023-06-14T01:04:39;15.20;99.90
11569;DHT22;5840;46.894;15.542;2023-06-14T01:07:12;15.30;99.90
11569;DHT22;5840;46.894;15.542;2023-06-14T01:09:50;15.20;99.90
11569;DHT22;5840;46.894;15.542;2023-06-14T01:12:24;15.30;99.90
11569;DHT22;5840;46.894;15.542;2023-06-14T01:14:51;15.30;99.90
11569;DHT22;5840;46.894;15.542;2023-06-14T01:17:21;15.30;99.90
11569;DHT22;5840;46.894;15.542;2023-06-14T01:19:51;15.20;99.90
11569;DHT22;5840;46.894;15.542;2023-06-14T01:22:24;15.20;99.90
11569;DHT22;5840;46.894;15.542;2023-06-14T01:24:53;15.20;99.90
11569;DHT22;5840;46.894;15.542;2023-06-14T01:27:22;15.20;99.90
11569;DHT22;5840;46.894;15.542;2023-06-14T01:29:55;15.20;99.90
11569;DHT22;5840;46.894;15.542;2023-06-14T01:32:23;15.10;99.90
11569;DHT22;5840;46.894;15.542;2023-06-14T01:34:51;15.10;99.90
11569;DHT22;5840;46.894;15.542;2023-06-14T01:37:19;15.00;99.90
11569;DHT22;5840;46.894;15.542;2023-06-14T01:39:48;15.00;99.90
11569;DHT22;5840;46.894;15.542;2023-06-14T01:42:18;14.90;99.90
11569;DHT22;5840;46.894;15.542;2023-06-14T01:44:46;14.90;99.90
11569;DHT22;5840;46.894;15.542;2023-06-14T01:47:14;14.90;99.90
11569;DHT22;5840;46.894;15.542;2023-06-14T01:49:41;14.90;99.90
11569;DHT22;5840;46.894;15.542;2023-06-14T01:52:08;14.90;99.90
11569;DHT22;5840;46.894;15.542;2023-06-14T01:54:35;14.90;99.90
11569;DHT22;5840;46.894;15.542;2023-06-14T01:57:07;14.80;99.90
11569;DHT22;5840;46.894;15.542;2023-06-14T01:59:37;14.80;99.90
11569;DHT22;5840;46.894;15.542;2023-06-14T02:02:04;14.80;99.90
11569;DHT22;5840;46.894;15.542;2023-06-14T02:04:31;14.80;99.90
11569;DHT22;5840;46.894;15.542;2023-06-14T02:06:58;14.70;99.90
11569;DHT22;5840;46.894;15.542;2023-06-14T02:09:25;14.70;99.90
11569;DHT22;5840;46.894;15.542;2023-06-14T02:11:52;14.70;99.90
11569;DHT22;5840;46.894;15.542;2023-06-14T02:14:19;14.70;99.90
11569;DHT22;5840;46.894;15.542;2023-06-14T02:16:47;14.70;99.90
11569;DHT22;5840;46.894;15.542;2023-06-14T02:19:15;14.60;99.90
11569;DHT22;5840;46.894;15.542;2023-06-14T02:21:42;14.60;99.90
11569;DHT22;5840;46.894;15.542;2023-06-14T02:24:09;14.60;99.90
11569;DHT22;5840;46.894;15.542;2023-06-14T02:26:36;14.60;99.90
11569;DHT22;5840;46.894;15.542;2023-06-14T02:29:04;14.50;99.90
11569;DHT22;5840;46.894;15.542;2023-06-14T02:31:31;14.50;99.90
11569;DHT22;5840;46.894;15.542;2023-06-14T02:33:59;14.50;99.90
11569;DHT22;5840;46.894;15.542;2023-06-14T02:36:26;14.50;99.90
11569;DHT22;5840;46.894;15.542;2023-06-14T02:38:55;14.40;99.90
11569;DHT22;5840;46.894;15.542;2023-06-14T02:41:23;14.40;99.90
11569;DHT22;5840;46.894;15.542;2023-06-14T02:43:50;14.30;99.90
11569;DHT22;5840;46.894;15.542;2023-06-14T02:46:17;14.30;99.90
11569;DHT22;5840;46.894;15.542;2023-06-14T02:48:44;14.30;99.90
11569;DHT22;5840;46.894;15.542;2023-06-14T02:51:12;14.20;99.90
11569;DHT22;5840;46.894;15.542;2023-06-14T02:53:39;14.20;99.90
11569;DHT22;5840;46.894;15.542;2023-06-14T02:56:06;14.20;99.90
11569;DHT22;5840;46.894;15.542;2023-06-14T02:58:33;14.20;99.90
11569;DHT22;5840;46.894;15.542;2023-06-14T03:01:00;14.20;99.90
11569;DHT22;5840;46.894;15.542;2023-06-14T03:03:29;14.30;99.90
11569;DHT22;5840;46.894;15.542;2023-06-14T03:05:56;14.30;99.90
11569;DHT22;5840;46.894;15.542;2023-06-14T03:08:24;14.30;99.90
11569;DHT22;5840;46.894;15.542;2023-06-14T03:10:53;14.20;99.90
11569;DHT22;5840;46.894;15.542;2023-06-14T03:13:21;14.20;99.90
11569;DHT22;5840;46.894;15.542;2023-06-14T03:15:49;14.30;99.90
11569;DHT22;5840;46.894;15.542;2023-06-14T03:18:17;14.20;99.90
11569;DHT22;5840;46.894;15.542;2023-06-14T03:20:44;14.20;99.90
11569;DHT22;5840;46.894;15.542;2023-06-14T03:23:12;14.10;99.90
11569;DHT22;5840;46.894;15.542;2023-06-14T03:25:40;14.10;99.90
11569;DHT22;5840;46.894;15.542;2023-06-14T03:28:07;14.20;99.90
11569;DHT22;5840;46.894;15.542;2023-06-14T03:30:34;14.20;99.90
11569;DHT22;5840;46.894;15.542;2023-06-14T03:33:01;14.10;99.90
11569;DHT22;5840;46.894;15.542;2023-06-14T03:35:29;14.10;99.90
11569;DHT22;5840;46.894;15.542;2023-06-14T03:37:55;14.10;99.90
11569;DHT22;5840;46.894;15.542;2023-06-14T03:40:23;14.10;99.90
11569;DHT22;5840;46.894;15.542;2023-06-14T03:42:54;14.20;99.90
11569;DHT22;5840;46.894;15.542;2023-06-14T03:45:21;14.20;99.90
11569;DHT22;5840;46.894;15.542;2023-06-14T03:47:48;14.20;99.90
11569;DHT22;5840;46.894;15.542;2023-06-14T03:50:16;14.20;99.90
11569;DHT22;5840;46.894;15.542;2023-06-14T03:52:43;14.20;99.90
11569;DHT22;5840;46.894;15.542;2023-06-14T03:55:10;14.20;99.90
11569;DHT22;5840;46.894;15.542;2023-06-14T03:57:38;14.20;99.90
11569;DHT22;5840;46.894;15.542;2023-06-14T04:00:09;14.20;99.90
11569;DHT22;5840;46.894;15.542;2023-06-14T04:02:37;14.10;99.90
11569;DHT22;5840;46.894;15.542;2023-06-14T04:05:04;14.20;99.90
11569;DHT22;5840;46.894;15.542;2023-06-14T04:07:34;14.20;99.90
11569;DHT22;5840;46.894;15.542;2023-06-14T04:10:06;14.30;99.90
11569;DHT22;5840;46.894;15.542;2023-06-14T04:12:34;14.30;99.90
11569;DHT22;5840;46.894;15.542;2023-06-14T04:15:01;14.40;99.90
11569;DHT22;5840;46.894;15.542;2023-06-14T04:17:29;14.40;99.90
11569;DHT22;5840;46.894;15.542;2023-06-14T04:19:58;14.50;99.90
11569;DHT22;5840;46.894;15.542;2023-06-14T04:22:25;14.40;99.90
11569;DHT22;5840;46.894;15.542;2023-06-14T04:24:54;14.50;99.90
11569;DHT22;5840;46.894;15.542;2023-06-14T04:27:22;14.50;99.90
11569;DHT22;5840;46.894;15.542;2023-06-14T04:29:51;14.50;99.90
11569;DHT22;5840;46.894;15.542;2023-06-14T04:32:23;14.60;99.90
11569;DHT22;5840;46.894;15.542;2023-06-14T04:34:53;14.60;99.90
11569;DHT22;5840;46.894;15.542;2023-06-14T04:37:20;14.60;99.90
11569;DHT22;5840;46.894;15.542;2023-06-14T04:39:47;14.60;99.90
11569;DHT22;5840;46.894;15.542;2023-06-14T04:42:15;14.60;99.90
11569;DHT22;5840;46.894;15.542;2023-06-14T04:44:43;14.60;99.90
11569;DHT22;5840;46.894;15.542;2023-06-14T04:47:10;14.60;99.90
11569;DHT22;5840;46.894;15.542;2023-06-14T04:49:38;14.70;99.90
11569;DHT22;5840;46.894;15.542;2023-06-14T04:52:07;14.70;99.90
11569;DHT22;5840;46.894;15.542;2023-06-14T04:54:35;14.80;99.90
11569;DHT22;5840;46.894;15.542;2023-06-14T04:57:04;14.90;99.90
11569;DHT22;5840;46.894;15.542;2023-06-14T04:59:31;14.90;99.90
11569;DHT22;5840;46.894;15.542;2023-06-14T05:01:59;15.00;99.90
11569;DHT22;5840;46.894;15.542;2023-06-14T05:04:26;15.00;99.90
11569;DHT22;5840;46.894;15.542;2023-06-14T05:06:53;15.00;99.90
11569;DHT22;5840;46.894;15.542;2023-06-14T05:09:22;15.00;99.90
11569;DHT22;5840;46.894;15.542;2023-06-14T05:11:49;15.10;99.90
11569;DHT22;5840;46.894;15.542;2023-06-14T05:14:16;15.10;99.90
11569;DHT22;5840;46.894;15.542;2023-06-14T05:16:44;15.10;99.90
11569;DHT22;5840;46.894;15.542;2023-06-14T05:19:10;15.20;99.90
11569;DHT22;5840;46.894;15.542;2023-06-14T05:21:38;15.20;99.90
11569;DHT22;5840;46.894;15.542;2023-06-14T05:24:05;15.20;99.90
11569;DHT22;5840;46.894;15.542;2023-06-14T05:26:33;15.30;99.90
11569;DHT22;5840;46.894;15.542;2023-06-14T05:29:01;15.20;99.90
11569;DHT22;5840;46.894;15.542;2023-06-14T05:31:28;15.30;99.90
11569;DHT22;5840;46.894;15.542;2023-06-14T05:33:55;15.30;99.90
11569;DHT22;5840;46.894;15.542;2023-06-14T05:36:22;15.30;99.90
11569;DHT22;5840;46.894;15.542;2023-06-14T05:38:49;15.30;99.90
11569;DHT22;5840;46.894;15.542;2023-06-14T05:41:23;15.30;99.90
11569;DHT22;5840;46.894;15.542;2023-06-14T05:43:51;15.30;99.90
11569;DHT22;5840;46.894;15.542;2023-06-14T05:46:18;15.40;99.90
11569;DHT22;5840;46.894;15.542;2023-06-14T05:48:48;15.40;99.90
11569;DHT22;5840;46.894;15.542;2023-06-14T05:51:15;15.30;99.90
11569;DHT22;5840;46.894;15.542;2023-06-14T05:53:44;15.30;99.90
11569;DHT22;5840;46.894;15.542;2023-06-14T05:56:11;15.30;99.90
11569;DHT22;5840;46.894;15.542;2023-06-14T05:58:38;15.30;99.90
11569;DHT22;5840;46.894;15.542;2023-06-14T06:01:06;15.30;99.90
11569;DHT22;5840;46.894;15.542;2023-06-14T06:03:33;15.30;99.90
11569;DHT22;5840;46.894;15.542;2023-06-14T06:06:00;15.30;99.90
11569;DHT22;5840;46.894;15.542;2023-06-14T06:08:28;15.30;99.90
11569;DHT22;5840;46.894;15.542;2023-06-14T06:10:55;15.30;99.90
11569;DHT22;5840;46.894;15.542;2023-06-14T06:13:22;15.30;99.90
11569;DHT22;5840;46.894;15.542;2023-06-14T06:15:49;15.40;99.90
11569;DHT22;5840;46.894;15.542;2023-06-14T06:18:17;15.40;99.90
11569;DHT22;5840;46.894;15.542;2023-06-14T06:20:44;15.40;99.90
11569;DHT22;5840;46.894;15.542;2023-06-14T06:23:12;15.50;99.90
11569;DHT22;5840;46.894;15.542;2023-06-14T06:25:39;15.50;99.90
11569;DHT22;5840;46.894;15.542;2023-06-14T06:28:06;15.50;99.90
11569;DHT22;5840;46.894;15.542;2023-06-14T06:30:33;15.50;99.90
11569;DHT22;5840;46.894;15.542;2023-06-14T06:33:01;15.50;99.90
11569;DHT22;5840;46.894;15.542;2023-06-14T06:35:30;15.50;99.90
11569;DHT22;5840;46.894;15.542;2023-06-14T06:37:59;15.50;99.90
11569;DHT22;5840;46.894;15.542;2023-06-14T06:40:26;15.50;99.90
11569;DHT22;5840;46.894;15.542;2023-06-14T06:42:53;15.60;99.90
11569;DHT22;5840;46.894;15.542;2023-06-14T06:45:20;15.60;99.90
11569;DHT22;5840;46.894;15.542;2023-06-14T06:47:48;15.60;99.90
11569;DHT22;5840;46.894;15.542;2023-06-14T06:50:15;15.60;99.90
11569;DHT22;5840;46.894;15.542;2023-06-14T06:52:44;15.60;99.90
11569;DHT22;5840;46.894;15.542;2023-06-14T06:55:11;15.70;99.90
11569;DHT22;5840;46.894;15.542;2023-06-14T06:57:38;15.70;99.90
11569;DHT22;5840;46.894;15.542;2023-06-14T07:00:06;15.70;99.90
11569;DHT22;5840;46.894;15.542;2023-06-14T07:02:35;15.60;99.90
11569;DHT22;5840;46.894;15.542;2023-06-14T07:05:02;15.60;99.90
11569;DHT22;5840;46.894;15.542;2023-06-14T07:07:29;15.50;99.90
11569;DHT22;5840;46.894;15.542;2023-06-14T07:09:58;15.50;99.90
11569;DHT22;5840;46.894;15.542;2023-06-14T07:12:25;15.50;99.90
11569;DHT22;5840;46.894;15.542;2023-06-14T07:14:52;15.50;99.90
11569;DHT22;5840;46.894;15.542;2023-06-14T07:17:19;15.40;99.90
11569;DHT22;5840;46.894;15.542;2023-06-14T07:19:46;15.40;99.90
11569;DHT22;5840;46.894;15.542;2023-06-14T07:22:13;15.40;99.90
11569;DHT22;5840;46.894;15.542;2023-06-14T07:24:40;15.30;99.90
11569;DHT22;5840;46.894;15.542;2023-06-14T07:27:09;15.30;99.90
11569;DHT22;5840;46.894;15.542;2023-06-14T07:29:37;15.20;99.90
11569;DHT22;5840;46.894;15.542;2023-06-14T07:32:05;15.30;99.90
11569;DHT22;5840;46.894;15.542;2023-06-14T07:34:32;15.30;99.90
11569;DHT22;5840;46.894;15.542;2023-06-14T07:36:58;15.30;99.90
11569;DHT22;5840;46.894;15.542;2023-06-14T07:39:25;15.20;99.90
11569;DHT22;5840;46.894;15.542;2023-06-14T07:41:52;15.20;99.90
11569;DHT22;5840;46.894;15.542;2023-06-14T07:44:21;15.20;99.90
11569;DHT22;5840;46.894;15.542;2023-06-14T07:46:47;15.10;99.90
11569;DHT22;5840;46.894;15.542;2023-06-14T07:49:16;15.10;99.90
11569;DHT22;5840;46.894;15.542;2023-06-14T07:51:43;15.00;99.90
11569;DHT22;5840;46.894;15.542;2023-06-14T07:54:11;14.90;99.90
11569;DHT22;5840;46.894;15.542;2023-06-14T07:56:39;14.90;99.90
11569;DHT22;5840;46.894;15.542;2023-06-14T07:59:06;14.90;99.90
11569;DHT22;5840;46.894;15.542;2023-06-14T08:01:34;14.90;99.90
11569;DHT22;5840;46.894;15.542;2023-06-14T08:04:01;14.90;99.90
11569;DHT22;5840;46.894;15.542;2023-06-14T08:06:28;15.00;99.90
11569;DHT22;5840;46.894;15.542;2023-06-14T08:08:56;15.00;99.90
11569;DHT22;5840;46.894;15.542;2023-06-14T08:11:22;14.90;99.90
11569;DHT22;5840;46.894;15.542;2023-06-14T08:13:50;14.90;99.90
11569;DHT22;5840;46.894;15.542;2023-06-14T08:16:17;14.80;99.90
11569;DHT22;5840;46.894;15.542;2023-06-14T08:18:45;14.80;99.90
11569;DHT22;5840;46.894;15.542;2023-06-14T08:21:12;14.70;99.90
11569;DHT22;5840;46.894;15.542;2023-06-14T08:23:40;14.70;99.90
11569;DHT22;5840;46.894;15.542;2023-06-14T08:26:08;14.70;99.90
11569;DHT22;5840;46.894;15.542;2023-06-14T08:28:35;14.70;99.90
11569;DHT22;5840;46.894;15.542;2023-06-14T08:31:02;14.70;99.90
11569;DHT22;5840;46.894;15.542;2023-06-14T08:33:29;14.70;99.90
11569;DHT22;5840;46.894;15.542;2023-06-14T08:35:59;14.70;99.90
11569;DHT22;5840;46.894;15.542;2023-06-14T08:38:26;14.60;99.90
11569;DHT22;5840;46.894;15.542;2023-06-14T08:40:57;14.60;99.90
11569;DHT22;5840;46.894;15.542;2023-06-14T08:43:25;14.60;99.90
11569;DHT22;5840;46.894;15.542;2023-06-14T08:45:56;14.60;99.90
11569;DHT22;5840;46.894;15.542;2023-06-14T08:48:26;14.60;99.90
11569;DHT22;5840;46.894;15.542;2023-06-14T08:50:54;14.70;99.90
11569;DHT22;5840;46.894;15.542;2023-06-14T08:53:29;14.80;99.90
11569;DHT22;5840;46.894;15.542;2023-06-14T08:55:57;14.90;99.90
11569;DHT22;5840;46.894;15.542;2023-06-14T08:58:27;14.90;99.90
11569;DHT22;5840;46.894;15.542;2023-06-14T09:00:55;15.00;99.90
11569;DHT22;5840;46.894;15.542;2023-06-14T09:03:23;15.00;99.90
11569;DHT22;5840;46.894;15.542;2023-06-14T09:05:56;15.10;99.90
11569;DHT22;5840;46.894;15.542;2023-06-14T09:08:24;15.10;99.90
11569;DHT22;5840;46.894;15.542;2023-06-14T09:10:53;15.20;99.90
11569;DHT22;5840;46.894;15.542;2023-06-14T09:13:20;15.30;99.90
11569;DHT22;5840;46.894;15.542;2023-06-14T09:15:47;15.30;99.90
11569;DHT22;5840;46.894;15.542;2023-06-14T09:18:14;15.40;99.90
11569;DHT22;5840;46.894;15.542;2023-06-14T09:20:41;15.40;99.90
11569;DHT22;5840;46.894;15.542;2023-06-14T09:23:08;15.40;99.90
11569;DHT22;5840;46.894;15.542;2023-06-14T09:25:42;15.40;99.90
11569;DHT22;5840;46.894;15.542;2023-06-14T09:28:11;15.40;99.90
11569;DHT22;5840;46.894;15.542;2023-06-14T09:30:38;15.40;99.90
11569;DHT22;5840;46.894;15.542;2023-06-14T09:33:05;15.40;99.90
11569;DHT22;5840;46.894;15.542;2023-06-14T09:35:32;15.50;99.90
11569;DHT22;5840;46.894;15.542;2023-06-14T09:37:59;15.50;99.90
11569;DHT22;5840;46.894;15.542;2023-06-14T09:40:26;15.60;99.90
11569;DHT22;5840;46.894;15.542;2023-06-14T09:42:54;15.70;99.90
11569;DHT22;5840;46.894;15.542;2023-06-14T09:45:25;15.90;99.90
11569;DHT22;5840;46.894;15.542;2023-06-14T09:47:55;16.00;99.90
11569;DHT22;5840;46.894;15.542;2023-06-14T09:50:22;16.10;99.90
11569;DHT22;5840;46.894;15.542;2023-06-14T09:52:52;16.10;99.90
11569;DHT22;5840;46.894;15.542;2023-06-14T09:55:26;16.40;99.90
11569;DHT22;5840;46.894;15.542;2023-06-14T09:57:54;16.50;99.90
11569;DHT22;5840;46.894;15.542;2023-06-14T10:00:23;16.70;99.90
11569;DHT22;5840;46.894;15.542;2023-06-14T10:02:55;16.80;99.90
11569;DHT22;5840;46.894;15.542;2023-06-14T10:05:27;16.90;99.90
11569;DHT22;5840;46.894;15.542;2023-06-14T10:07:59;17.00;99.90
11569;DHT22;5840;46.894;15.542;2023-06-14T10:10:26;17.00;99.90
11569;DHT22;5840;46.894;15.542;2023-06-14T10:12:54;17.10;99.90
11569;DHT22;5840;46.894;15.542;2023-06-14T10:15:30;17.00;99.90
11569;DHT22;5840;46.894;15.542;2023-06-14T10:18:04;16.90;99.90
11569;DHT22;5840;46.894;15.542;2023-06-14T10:20:40;16.90;99.90
11569;DHT22;5840;46.894;15.542;2023-06-14T10:23:19;16.90;99.90
11569;DHT22;5840;46.894;15.542;2023-06-14T10:25:50;17.00;99.90
11569;DHT22;5840;46.894;15.542;2023-06-14T10:28:18;17.10;99.90
11569;DHT22;5840;46.894;15.542;2023-06-14T10:31:05;17.30;99.90
11569;DHT22;5840;46.894;15.542;2023-06-14T10:33:33;17.50;99.90
11569;DHT22;5840;46.894;15.542;2023-06-14T10:36:08;17.80;99.90
11569;DHT22;5840;46.894;15.542;2023-06-14T10:38:36;18.00;99.90
11569;DHT22;5840;46.894;15.542;2023-06-14T10:41:04;18.20;99.90
11569;DHT22;5840;46.894;15.542;2023-06-14T10:43:32;18.20;99.90
11569;DHT22;5840;46.894;15.542;2023-06-14T10:46:15;18.10;99.90
11569;DHT22;5840;46.894;15.542;2023-06-14T10:48:43;18.10;99.90
11569;DHT22;5840;46.894;15.542;2023-06-14T10:51:18;17.90;99.90
11569;DHT22;5840;46.894;15.542;2023-06-14T10:53:48;17.90;99.90
11569;DHT22;5840;46.894;15.542;2023-06-14T10:56:27;17.90;99.90
11569;DHT22;5840;46.894;15.542;2023-06-14T10:58:55;17.90;99.90
11569;DHT22;5840;46.894;15.542;2023-06-14T11:01:33;17.80;99.90
11569;DHT22;5840;46.894;15.542;2023-06-14T11:04:09;17.80;99.90
11569;DHT22;5840;46.894;15.542;2023-06-14T11:06:46;17.70;99.90
11569;DHT22;5840;46.894;15.542;2023-06-14T11:12:10;17.90;99.90
11569;DHT22;5840;46.894;15.542;2023-06-14T11:14:38;17.90;99.90
11569;DHT22;5840;46.894;15.542;2023-06-14T11:17:07;18.00;99.90
11569;DHT22;5840;46.894;15.542;2023-06-14T11:19:34;18.20;99.90
11569;DHT22;5840;46.894;15.542;2023-06-14T11:22:01;18.30;99.90
11569;DHT22;5840;46.894;15.542;2023-06-14T11:24:28;18.40;99.90
11569;DHT22;5840;46.894;15.542;2023-06-14T11:26:55;18.70;99.90
11569;DHT22;5840;46.894;15.542;2023-06-14T11:29:23;19.10;99.90
11569;DHT22;5840;46.894;15.542;2023-06-14T11:31:51;19.40;99.90
11569;DHT22;5840;46.894;15.542;2023-06-14T11:34:19;19.80;99.90
11569;DHT22;5840;46.894;15.542;2023-06-14T11:36:46;20.00;99.90
11569;DHT22;5840;46.894;15.542;2023-06-14T11:39:13;20.10;99.90
11569;DHT22;5840;46.894;15.542;2023-06-14T11:41:41;20.20;99.90
11569;DHT22;5840;46.894;15.542;2023-06-14T11:44:09;20.40;99.90
11569;DHT22;5840;46.894;15.542;2023-06-14T11:46:37;20.50;99.90
11569;DHT22;5840;46.894;15.542;2023-06-14T11:49:04;20.60;99.90
11569;DHT22;5840;46.894;15.542;2023-06-14T11:51:34;20.70;99.90
11569;DHT22;5840;46.894;15.542;2023-06-14T11:54:01;21.00;99.90
11569;DHT22;5840;46.894;15.542;2023-06-14T11:56:29;21.10;99.90
11569;DHT22;5840;46.894;15.542;2023-06-14T11:58:57;21.20;99.90
11569;DHT22;5840;46.894;15.542;2023-06-14T12:01:24;21.40;99.90
11569;DHT22;5840;46.894;15.542;2023-06-14T12:03:53;21.50;99.90
11569;DHT22;5840;46.894;15.542;2023-06-14T12:06:26;21.70;99.90
11569;DHT22;5840;46.894;15.542;2023-06-14T12:08:57;21.80;99.90
11569;DHT22;5840;46.894;15.542;2023-06-14T12:11:24;22.00;99.90
11569;DHT22;5840;46.894;15.542;2023-06-14T12:13:56;21.90;99.90
11569;DHT22;5840;46.894;15.542;2023-06-14T12:16:30;21.70;99.90
11569;DHT22;5840;46.894;15.542;2023-06-14T12:19:00;21.50;99.90
11569;DHT22;5840;46.894;15.542;2023-06-14T12:21:27;21.30;99.90
11569;DHT22;5840;46.894;15.542;2023-06-14T12:23:54;21.10;99.90
11569;DHT22;5840;46.894;15.542;2023-06-14T12:26:24;21.00;99.90
11569;DHT22;5840;46.894;15.542;2023-06-14T12:28:53;20.90;99.90
11569;DHT22;5840;46.894;15.542;2023-06-14T12:31:20;20.90;99.90
11569;DHT22;5840;46.894;15.542;2023-06-14T12:33:47;21.00;99.90
11569;DHT22;5840;46.894;15.542;2023-06-14T12:36:15;21.10;99.90
11569;DHT22;5840;46.894;15.542;2023-06-14T12:38:43;21.30;99.90
11569;DHT22;5840;46.894;15.542;2023-06-14T12:41:11;21.20;99.90
11569;DHT22;5840;46.894;15.542;2023-06-14T12:43:41;21.20;99.90
11569;DHT22;5840;46.894;15.542;2023-06-14T12:46:08;21.20;99.90
11569;DHT22;5840;46.894;15.542;2023-06-14T12:48:35;21.20;99.90
11569;DHT22;5840;46.894;15.542;2023-06-14T12:51:02;21.20;99.90
11569;DHT22;5840;46.894;15.542;2023-06-14T12:53:29;21.50;99.90
11569;DHT22;5840;46.894;15.542;2023-06-14T12:55:56;21.70;99.90
11569;DHT22;5840;46.894;15.542;2023-06-14T12:58:23;21.70;99.90
11569;DHT22;5840;46.894;15.542;2023-06-14T13:00:51;21.70;99.90
11569;DHT22;5840;46.894;15.542;2023-06-14T13:03:18;21.60;99.90
11569;DHT22;5840;46.894;15.542;2023-06-14T13:05:45;21.50;99.90
11569;DHT22;5840;46.894;15.542;2023-06-14T13:08:12;21.40;99.90
11569;DHT22;5840;46.894;15.542;2023-06-14T13:10:39;21.60;99.90
11569;DHT22;5840;46.894;15.542;2023-06-14T13:13:06;21.80;99.90
11569;DHT22;5840;46.894;15.542;2023-06-14T13:15:34;21.80;99.90
11569;DHT22;5840;46.894;15.542;2023-06-14T13:18:02;21.60;99.90
11569;DHT22;5840;46.894;15.542;2023-06-14T13:20:29;21.60;99.90
11569;DHT22;5840;46.894;15.542;2023-06-14T13:22:56;21.70;99.90
11569;DHT22;5840;46.894;15.542;2023-06-14T13:25:23;21.90;99.90
11569;DHT22;5840;46.894;15.542;2023-06-14T13:27:50;21.90;99.90
11569;DHT22;5840;46.894;15.542;2023-06-14T13:30:17;21.80;99.90
11569;DHT22;5840;46.894;15.542;2023-06-14T13:32:43;21.80;99.90
11569;DHT22;5840;46.894;15.542;2023-06-14T13:35:12;21.80;99.90
11569;DHT22;5840;46.894;15.542;2023-06-14T13:37:39;21.70;99.90
11569;DHT22;5840;46.894;15.542;2023-06-14T13:40:07;21.70;99.90
11569;DHT22;5840;46.894;15.542;2023-06-14T13:42:34;21.60;99.90
11569;DHT22;5840;46.894;15.542;2023-06-14T13:45:01;21.50;99.90
11569;DHT22;5840;46.894;15.542;2023-06-14T13:47:28;21.50;99.90
11569;DHT22;5840;46.894;15.542;2023-06-14T13:49:55;21.50;99.90
11569;DHT22;5840;46.894;15.542;2023-06-14T13:52:23;21.40;99.90
11569;DHT22;5840;46.894;15.542;2023-06-14T13:54:50;21.40;99.90
11569;DHT22;5840;46.894;15.542;2023-06-14T13:57:18;21.30;99.90
11569;DHT22;5840;46.894;15.542;2023-06-14T13:59:45;21.20;99.90
11569;DHT22;5840;46.894;15.542;2023-06-14T14:02:12;21.20;99.90
11569;DHT22;5840;46.894;15.542;2023-06-14T14:04:40;21.10;99.90
11569;DHT22;5840;46.894;15.542;2023-06-14T14:07:07;21.10;99.90
11569;DHT22;5840;46.894;15.542;2023-06-14T14:09:36;21.10;99.90
11569;DHT22;5840;46.894;15.542;2023-06-14T14:12:03;21.20;99.90
11569;DHT22;5840;46.894;15.542;2023-06-14T14:14:31;21.50;99.90
11569;DHT22;5840;46.894;15.542;2023-06-14T14:16:58;21.70;99.90
11569;DHT22;5840;46.894;15.542;2023-06-14T14:19:25;21.80;99.90
11569;DHT22;5840;46.894;15.542;2023-06-14T14:21:52;22.00;99.90
11569;DHT22;5840;46.894;15.542;2023-06-14T14:24:20;22.20;99.90
11569;DHT22;5840;46.894;15.542;2023-06-14T14:26:48;22.20;99.90
11569;DHT22;5840;46.894;15.542;2023-06-14T14:29:19;22.10;99.90
11569;DHT22;5840;46.894;15.542;2023-06-14T14:31:46;21.80;99.90
11569;DHT22;5840;46.894;15.542;2023-06-14T14:34:13;21.60;99.90
11569;DHT22;5840;46.894;15.542;2023-06-14T14:36:40;21.50;99.90
11569;DHT22;5840;46.894;15.542;2023-06-14T14:39:08;21.40;99.90
11569;DHT22;5840;46.894;15.542;2023-06-14T14:41:35;21.40;99.90
11569;DHT22;5840;46.894;15.542;2023-06-14T14:44:05;21.40;99.90
11569;DHT22;5840;46.894;15.542;2023-06-14T14:46:32;21.30;99.90
11569;DHT22;5840;46.894;15.542;2023-06-14T14:48:59;21.40;99.90
11569;DHT22;5840;46.894;15.542;2023-06-14T14:51:26;21.40;99.90
11569;DHT22;5840;46.894;15.542;2023-06-14T14:53:53;21.30;99.90
11569;DHT22;5840;46.894;15.542;2023-06-14T14:56:23;21.20;99.90
11569;DHT22;5840;46.894;15.542;2023-06-14T14:58:51;21.20;99.90
11569;DHT22;5840;46.894;15.542;2023-06-14T15:01:19;21.10;99.90
11569;DHT22;5840;46.894;15.542;2023-06-14T15:03:46;21.00;99.90
11569;DHT22;5840;46.894;15.542;2023-06-14T15:06:13;21.00;99.90
11569;DHT22;5840;46.894;15.542;2023-06-14T15:08:40;20.90;99.90
11569;DHT22;5840;46.894;15.542;2023-06-14T15:11:07;20.90;99.90
11569;DHT22;5840;46.894;15.542;2023-06-14T15:13:34;20.80;99.90
11569;DHT22;5840;46.894;15.542;2023-06-14T15:16:01;20.90;99.90
11569;DHT22;5840;46.894;15.542;2023-06-14T15:18:29;21.00;99.90
11569;DHT22;5840;46.894;15.542;2023-06-14T15:20:56;21.20;99.90
11569;DHT22;5840;46.894;15.542;2023-06-14T15:23:23;21.30;99.90
11569;DHT22;5840;46.894;15.542;2023-06-14T15:25:50;21.30;99.90
11569;DHT22;5840;46.894;15.542;2023-06-14T15:28:17;21.30;99.90
11569;DHT22;5840;46.894;15.542;2023-06-14T15:30:44;21.30;99.90
11569;DHT22;5840;46.894;15.542;2023-06-14T15:33:11;21.50;99.90
11569;DHT22;5840;46.894;15.542;2023-06-14T15:35:40;21.60;99.90
11569;DHT22;5840;46.894;15.542;2023-06-14T15:38:06;21.70;99.90